createdAt,value
2019-04-07T00:00:36.215Z,62.60
2019-04-07T00:01:15.825Z,65.10
2019-04-07T00:01:52.989Z,57.88
2019-04-07T00:02:29.112Z,61.88
2019-04-07T00:03:05.203Z,60.38
2019-04-07T00:03:41.025Z,59.00
2019-04-07T00:04:16.985Z,56.83
2019-04-07T00:04:53.474Z,59.00
2019-04-07T00:05:29.119Z,60.73
2019-04-07T00:06:05.303Z,58.90
2019-04-07T00:06:40.928Z,61.35
2019-04-07T00:07:17.250Z,57.00
2019-04-07T00:07:53.070Z,61.10
2019-04-07T00:08:28.692Z,60.20
2019-04-07T00:09:06.083Z,60.05
2019-04-07T00:09:41.689Z,62.33
2019-04-07T00:10:17.249Z,58.23
2019-04-07T00:10:52.881Z,57.15
2019-04-07T00:11:29.991Z,58.33
2019-04-07T00:12:06.071Z,59.08
2019-04-07T00:12:41.803Z,63.02
2019-04-07T00:13:17.347Z,59.98
2019-04-07T00:13:52.888Z,57.03
2019-04-07T00:14:28.459Z,57.33
2019-04-07T00:15:04.258Z,57.97
2019-04-07T00:15:41.670Z,63.60
2019-04-07T00:16:17.208Z,60.52
2019-04-07T00:16:53.661Z,60.98
2019-04-07T00:17:29.342Z,58.43
2019-04-07T00:18:05.007Z,58.02
2019-04-07T00:18:40.989Z,56.05
2019-04-07T00:19:17.316Z,59.35
2019-04-07T00:19:52.848Z,52.67
2019-04-07T00:20:28.415Z,62.98
2019-04-07T00:21:04.004Z,55.88
2019-04-07T00:21:39.641Z,57.58
2019-04-07T00:22:15.387Z,53.35
2019-04-07T00:22:51.392Z,63.05
2019-04-07T00:23:27.256Z,54.40
2019-04-07T00:24:03.475Z,54.83
2019-04-07T00:24:39.348Z,58.02
2019-04-07T00:25:14.996Z,55.25
2019-04-07T00:25:50.997Z,53.78
2019-04-07T00:26:26.562Z,61.35
2019-04-07T00:27:02.601Z,58.83
2019-04-07T00:27:39.124Z,59.27
2019-04-07T00:28:16.168Z,56.28
2019-04-07T00:28:52.067Z,57.53
2019-04-07T00:29:27.828Z,57.27
2019-04-07T00:30:03.973Z,53.78
2019-04-07T00:30:39.987Z,57.40
2019-04-07T00:31:15.587Z,56.42
2019-04-07T00:31:51.127Z,59.00
2019-04-07T00:32:27.265Z,57.75
2019-04-07T00:33:02.937Z,60.05
2019-04-07T00:33:38.999Z,61.55
2019-04-07T00:34:14.561Z,65.90
2019-04-07T00:34:50.153Z,59.10
2019-04-07T00:35:31.133Z,54.25
2019-04-07T00:36:03.331Z,58.05
2019-04-07T00:36:39.608Z,52.40
2019-04-07T00:37:15.709Z,57.67
2019-04-07T00:37:51.745Z,56.10
2019-04-07T00:38:27.442Z,59.42
2019-04-07T00:39:04.186Z,59.33
2019-04-07T00:39:39.764Z,59.40
2019-04-07T00:40:15.843Z,55.60
2019-04-07T00:40:51.443Z,58.33
2019-04-07T00:41:27.472Z,56.65
2019-04-07T00:42:03.201Z,57.08
2019-04-07T00:42:39.080Z,58.13
2019-04-07T00:43:15.363Z,59.33
2019-04-07T00:43:51.756Z,59.42
2019-04-07T00:44:27.883Z,56.10
2019-04-07T00:45:03.669Z,53.55
2019-04-07T00:45:39.610Z,60.70
2019-04-07T00:46:15.241Z,59.60
2019-04-07T00:46:51.024Z,55.20
2019-04-07T00:47:26.933Z,52.17
2019-04-07T00:48:02.476Z,56.42
2019-04-07T00:48:38.578Z,61.40
2019-04-07T00:49:14.888Z,58.37
2019-04-07T00:49:51.304Z,62.00
2019-04-07T00:50:28.565Z,55.48
2019-04-07T00:51:04.982Z,58.50
2019-04-07T00:51:41.039Z,58.87
2019-04-07T00:52:18.152Z,54.50
2019-04-07T00:52:53.762Z,58.07
2019-04-07T00:53:29.949Z,57.95
2019-04-07T00:54:06.163Z,57.43
2019-04-07T00:54:42.425Z,57.33
2019-04-07T00:55:18.790Z,57.58
2019-04-07T00:55:54.995Z,57.05
2019-04-07T00:56:31.201Z,60.10
2019-04-07T00:57:07.260Z,55.38
2019-04-07T00:57:42.979Z,57.58
2019-04-07T00:58:19.191Z,56.48
2019-04-07T00:58:55.049Z,57.90
2019-04-07T00:59:30.864Z,60.83
2019-04-07T01:00:08.064Z,60.15
2019-04-07T01:00:44.574Z,63.02
2019-04-07T01:01:20.685Z,56.60
2019-04-07T01:01:56.751Z,58.78
2019-04-07T01:02:32.359Z,59.35
2019-04-07T01:03:08.347Z,59.27
2019-04-07T01:03:44.474Z,58.10
2019-04-07T01:04:21.059Z,56.70
2019-04-07T01:04:57.235Z,57.15
2019-04-07T01:05:37.911Z,63.10
2019-04-07T01:06:12.923Z,60.92
2019-04-07T01:06:48.640Z,59.20
2019-04-07T01:07:26.664Z,62.95
2019-04-07T01:08:02.293Z,63.98
2019-04-07T01:08:38.182Z,62.03
2019-04-07T01:09:14.493Z,59.57
2019-04-07T01:09:50.671Z,63.73
2019-04-07T01:10:26.305Z,59.38
2019-04-07T01:11:02.392Z,61.25
2019-04-07T01:11:39.664Z,64.82
2019-04-07T01:12:15.527Z,61.33
2019-04-07T01:12:51.239Z,60.65
2019-04-07T01:13:27.330Z,60.60
2019-04-07T01:14:03.155Z,59.65
2019-04-07T01:14:38.938Z,56.37
2019-04-07T01:15:15.076Z,61.68
2019-04-07T01:15:51.792Z,63.60
2019-04-07T01:16:27.426Z,60.93
2019-04-07T01:17:03.684Z,63.78
2019-04-07T01:17:39.327Z,58.58
2019-04-07T01:18:15.398Z,57.48
2019-04-07T01:18:51.339Z,60.45
2019-04-07T01:19:27.826Z,58.40
2019-04-07T01:20:05.229Z,62.88
2019-04-07T01:20:40.927Z,55.40
2019-04-07T01:21:17.049Z,58.95
2019-04-07T01:21:53.679Z,58.55
2019-04-07T01:22:29.731Z,56.35
2019-04-07T01:23:05.513Z,59.42
2019-04-07T01:23:41.483Z,60.12
2019-04-07T01:24:17.678Z,60.83
2019-04-07T01:24:53.440Z,60.00
2019-04-07T01:25:29.270Z,57.27
2019-04-07T01:26:04.973Z,60.17
2019-04-07T01:26:40.561Z,58.35
2019-04-07T01:27:16.200Z,60.08
2019-04-07T01:27:51.883Z,57.43
2019-04-07T01:28:27.517Z,56.40
2019-04-07T01:29:03.117Z,58.25
2019-04-07T01:29:38.773Z,62.38
2019-04-07T01:30:15.002Z,59.27
2019-04-07T01:30:51.650Z,58.05
2019-04-07T01:31:27.578Z,57.53
2019-04-07T01:32:03.805Z,58.02
2019-04-07T01:32:39.554Z,58.87
2019-04-07T01:33:15.339Z,59.42
2019-04-07T01:33:51.394Z,59.85
2019-04-07T01:34:27.361Z,59.93
2019-04-07T01:35:03.295Z,60.52
2019-04-07T01:35:46.253Z,59.13
2019-04-07T01:36:16.204Z,56.55
2019-04-07T01:36:52.083Z,59.35
2019-04-07T01:37:28.991Z,59.83
2019-04-07T01:38:04.944Z,62.33
2019-04-07T01:38:41.104Z,62.43
2019-04-07T01:39:16.874Z,62.65
2019-04-07T01:39:52.930Z,59.25
2019-04-07T01:40:28.859Z,60.73
2019-04-07T01:41:10.840Z,60.48
2019-04-07T01:41:55.091Z,55.88
2019-04-07T01:42:52.184Z,59.75
2019-04-07T01:43:37.117Z,60.65
2019-04-07T01:44:24.372Z,63.73
2019-04-07T01:45:25.710Z,59.95
2019-04-07T01:46:09.886Z,58.33
2019-04-07T01:46:58.605Z,62.88
2019-04-07T01:47:52.396Z,64.00
2019-04-07T01:48:39.576Z,59.07
2019-04-07T01:49:34.777Z,58.87
2019-04-07T01:50:26.268Z,63.73
2019-04-07T01:51:21.226Z,61.00
2019-04-07T01:52:05.777Z,59.93
2019-04-07T01:53:00.500Z,60.10
2019-04-07T01:53:55.127Z,61.23
2019-04-07T01:54:53.656Z,61.33
2019-04-07T01:55:51.151Z,59.03
2019-04-07T01:56:51.884Z,61.45
2019-04-07T01:57:55.565Z,58.67
2019-04-07T01:58:44.404Z,58.90
2019-04-07T01:59:42.155Z,60.80
2019-04-07T02:00:29.177Z,66.05
2019-04-07T02:01:20.924Z,62.07
2019-04-07T02:02:14.743Z,63.20
2019-04-07T02:02:59.962Z,66.47
2019-04-07T02:03:58.428Z,60.50
2019-04-07T02:05:05.602Z,58.60
2019-04-07T02:06:06.888Z,62.00
2019-04-07T02:07:01.069Z,65.17
2019-04-07T02:07:59.150Z,60.73
2019-04-07T02:08:52.911Z,61.47
2019-04-07T02:09:50.387Z,63.53
2019-04-07T02:10:45.067Z,62.77
2019-04-07T02:11:30.885Z,63.08
2019-04-07T02:12:24.768Z,60.10
2019-04-07T02:13:22.834Z,62.17
2019-04-07T02:14:07.070Z,60.33
2019-04-07T02:15:02.367Z,63.07
2019-04-07T02:15:56.035Z,61.20
2019-04-07T02:16:42.044Z,66.73
2019-04-07T02:17:30.095Z,63.93
2019-04-07T02:18:34.232Z,59.43
2019-04-07T02:19:48.219Z,56.83
2019-04-07T02:21:03.349Z,63.07
2019-04-07T02:22:07.175Z,58.63
2019-04-07T02:23:00.872Z,58.30
2019-04-07T02:23:51.440Z,57.80
2019-04-07T02:24:41.070Z,58.73
2019-04-07T02:25:38.455Z,61.27
2019-04-07T02:26:26.798Z,64.50
2019-04-07T02:27:30.710Z,60.90
2019-04-07T02:28:29.182Z,62.23
2019-04-07T02:29:30.035Z,69.77
2019-04-07T02:30:23.698Z,59.47
2019-04-07T02:31:27.595Z,61.00
2019-04-07T02:32:27.747Z,65.50
2019-04-07T02:33:25.002Z,60.97
2019-04-07T02:34:29.785Z,57.70
2019-04-07T02:35:24.650Z,62.23
2019-04-07T02:36:22.697Z,61.30
2019-04-07T02:37:14.645Z,57.27
2019-04-07T02:37:58.621Z,62.70
2019-04-07T02:38:50.014Z,54.97
2019-04-07T02:39:38.679Z,55.00
2019-04-07T02:40:26.817Z,61.13
2019-04-07T02:41:24.668Z,59.63
2019-04-07T02:42:25.156Z,61.13
2019-04-07T02:43:25.675Z,59.90
2019-04-07T02:44:23.822Z,61.50
2019-04-07T02:45:25.075Z,56.20
2019-04-07T02:46:20.275Z,55.77
2019-04-07T02:47:09.871Z,56.10
2019-04-07T02:48:11.039Z,58.07
2019-04-07T02:48:57.753Z,58.83
2019-04-07T02:49:43.692Z,58.03
2019-04-07T02:50:38.609Z,62.07
2019-04-07T02:51:39.009Z,53.47
2019-04-07T02:52:33.693Z,66.40
2019-04-07T02:53:27.326Z,59.17
2019-04-07T02:54:34.634Z,55.50
2019-04-07T02:55:19.981Z,55.70
2019-04-07T02:56:07.989Z,58.47
2019-04-07T02:56:52.862Z,55.87
2019-04-07T02:57:51.987Z,53.27
2019-04-07T02:58:33.033Z,66.80
2019-04-07T02:59:25.321Z,59.70
2019-04-07T03:00:36.330Z,59.80
2019-04-07T03:01:27.694Z,60.37
2019-04-07T03:02:14.296Z,55.07
2019-04-07T03:03:12.839Z,61.17
2019-04-07T03:04:05.979Z,58.37
2019-04-07T03:05:06.638Z,58.20
2019-04-07T03:05:46.348Z,62.80
2019-04-07T03:06:48.262Z,58.10
2019-04-07T03:07:41.249Z,56.43
2019-04-07T03:08:34.446Z,60.07
2019-04-07T03:09:36.546Z,62.87
2019-04-07T03:10:24.974Z,61.40
2019-04-07T03:11:09.648Z,58.73
2019-04-07T03:11:57.687Z,56.67
2019-04-07T03:12:41.415Z,55.67
2019-04-07T03:13:35.049Z,57.47
2019-04-07T03:14:14.822Z,54.33
2019-04-07T03:15:03.324Z,56.90
2019-04-07T03:15:44.218Z,61.13
2019-04-07T03:16:54.372Z,57.30
2019-04-07T03:17:47.878Z,57.13
2019-04-07T03:18:35.882Z,56.87
2019-04-07T03:19:15.192Z,53.40
2019-04-07T03:20:05.121Z,61.40
2019-04-07T03:20:57.773Z,65.00
2019-04-07T03:21:39.133Z,63.97
2019-04-07T03:22:37.300Z,67.23
2019-04-07T03:23:31.642Z,67.23
2019-04-07T03:24:35.367Z,59.83
2019-04-07T03:25:24.013Z,61.70
2019-04-07T03:26:18.349Z,62.33
2019-04-07T03:27:12.161Z,65.13
2019-04-07T03:27:54.709Z,64.43
2019-04-07T03:28:49.197Z,63.57
2019-04-07T03:29:47.134Z,64.20
2019-04-07T03:30:42.238Z,60.67
2019-04-07T03:31:27.031Z,60.43
2019-04-07T03:32:18.267Z,61.03
2019-04-07T03:33:14.222Z,59.70
2019-04-07T03:34:09.159Z,64.13
2019-04-07T03:35:07.621Z,60.87
2019-04-07T03:35:55.376Z,61.37
2019-04-07T03:37:15.025Z,63.50
2019-04-07T03:37:44.277Z,58.43
2019-04-07T03:38:28.627Z,60.63
2019-04-07T03:39:24.395Z,58.93
2019-04-07T03:40:31.089Z,58.13
2019-04-07T03:41:29.246Z,55.40
2019-04-07T03:42:13.476Z,57.17
2019-04-07T03:42:57.699Z,57.63
2019-04-07T03:43:41.703Z,61.83
2019-04-07T03:44:43.509Z,61.60
2019-04-07T03:45:57.190Z,59.20
2019-04-07T03:46:38.901Z,57.40
2019-04-07T03:47:23.412Z,61.70
2019-04-07T03:48:08.521Z,66.50
2019-04-07T03:48:51.287Z,58.37
2019-04-07T03:49:33.545Z,56.03
2019-04-07T03:50:26.293Z,67.07
2019-04-07T03:51:06.767Z,57.33
2019-04-07T03:52:10.532Z,56.73
2019-04-07T03:53:11.007Z,60.83
2019-04-07T03:54:03.096Z,56.23
2019-04-07T03:54:59.943Z,58.33
2019-04-07T03:56:10.227Z,57.30
2019-04-07T03:56:53.003Z,54.10
2019-04-07T03:57:47.726Z,58.97
2019-04-07T03:59:00.852Z,54.93
2019-04-07T03:59:47.817Z,55.20
2019-04-07T04:01:06.665Z,58.03
2019-04-07T04:01:51.744Z,55.53
2019-04-07T04:02:41.124Z,53.33
2019-04-07T04:03:28.775Z,54.50
2019-04-07T04:04:22.570Z,55.53
2019-04-07T04:05:09.173Z,54.57
2019-04-07T04:05:55.813Z,58.40
2019-04-07T04:06:54.946Z,55.40
2019-04-07T04:07:38.789Z,56.17
2019-04-07T04:08:20.908Z,56.53
2019-04-07T04:09:06.177Z,52.43
2019-04-07T04:09:47.570Z,58.53
2019-04-07T04:10:31.435Z,56.07
2019-04-07T04:11:18.889Z,56.77
2019-04-07T04:12:22.833Z,58.03
2019-04-07T04:13:05.058Z,60.53
2019-04-07T04:14:00.152Z,55.87
2019-04-07T04:14:41.442Z,55.30
2019-04-07T04:15:20.436Z,55.37
2019-04-07T04:16:04.665Z,58.10
2019-04-07T04:16:44.535Z,57.40
2019-04-07T04:17:21.056Z,54.17
2019-04-07T04:17:57.362Z,56.50
2019-04-07T04:18:33.207Z,53.17
2019-04-07T04:19:08.775Z,53.63
2019-04-07T04:19:44.421Z,53.63
2019-04-07T04:20:20.039Z,53.63
2019-04-07T04:20:55.894Z,52.10
2019-04-07T04:21:32.779Z,53.60
2019-04-07T04:22:09.161Z,54.47
2019-04-07T04:22:45.125Z,56.43
2019-04-07T04:23:20.755Z,54.43
2019-04-07T04:23:57.616Z,55.30
2019-04-07T04:24:33.653Z,52.40
2019-04-07T04:25:09.424Z,55.73
2019-04-07T04:25:45.700Z,52.43
2019-04-07T04:26:21.696Z,49.53
2019-04-07T04:26:57.245Z,52.43
2019-04-07T04:27:33.277Z,51.73
2019-04-07T04:28:09.445Z,54.97
2019-04-07T04:28:45.082Z,57.07
2019-04-07T04:29:20.729Z,52.67
2019-04-07T04:29:56.741Z,54.20
2019-04-07T04:30:32.469Z,54.27
2019-04-07T04:31:09.011Z,53.10
2019-04-07T04:31:44.565Z,51.67
2019-04-07T04:32:21.540Z,51.47
2019-04-07T04:32:57.808Z,55.73
2019-04-07T04:33:33.492Z,54.63
2019-04-07T04:34:09.912Z,54.10
2019-04-07T04:34:45.478Z,54.87
2019-04-07T04:35:22.379Z,52.47
2019-04-07T04:35:58.020Z,52.33
2019-04-07T04:36:33.677Z,52.50
2019-04-07T04:37:09.498Z,54.33
2019-04-07T04:37:50.165Z,51.20
2019-04-07T04:38:22.290Z,55.33
2019-04-07T04:38:59.107Z,52.83
2019-04-07T04:39:35.488Z,51.70
2019-04-07T04:40:11.348Z,53.40
2019-04-07T04:40:46.936Z,54.37
2019-04-07T04:41:23.183Z,56.33
2019-04-07T04:41:59.845Z,50.30
2019-04-07T04:42:35.878Z,50.40
2019-04-07T04:43:12.113Z,54.97
2019-04-07T04:43:47.672Z,52.03
2019-04-07T04:44:24.154Z,54.60
2019-04-07T04:45:00.546Z,50.40
2019-04-07T04:45:36.605Z,51.13
2019-04-07T04:46:12.730Z,53.77
2019-04-07T04:46:49.134Z,49.83
2019-04-07T04:47:25.215Z,48.70
2019-04-07T04:48:02.551Z,51.70
2019-04-07T04:48:38.836Z,53.77
2019-04-07T04:49:15.081Z,49.13
2019-04-07T04:49:50.877Z,54.47
2019-04-07T04:50:26.438Z,60.53
2019-04-07T04:51:02.059Z,57.70
2019-04-07T04:51:39.537Z,56.80
2019-04-07T04:52:15.667Z,53.70
2019-04-07T04:52:51.997Z,53.40
2019-04-07T04:53:29.489Z,51.20
2019-04-07T04:54:06.997Z,52.40
2019-04-07T04:54:46.263Z,58.20
2019-04-07T04:55:22.161Z,55.70
2019-04-07T04:55:57.869Z,55.47
2019-04-07T04:56:34.320Z,52.17
2019-04-07T04:57:09.920Z,50.73
2019-04-07T04:57:47.870Z,49.07
2019-04-07T04:58:23.554Z,47.13
2019-04-07T04:58:59.794Z,49.63
2019-04-07T04:59:36.473Z,48.00
2019-04-07T05:00:12.309Z,45.20
2019-04-07T05:00:48.489Z,47.50
2019-04-07T05:01:24.130Z,48.27
2019-04-07T05:02:00.031Z,48.80
2019-04-07T05:02:36.711Z,50.30
2019-04-07T05:03:12.711Z,46.83
2019-04-07T05:03:49.531Z,50.07
2019-04-07T05:04:25.082Z,45.20
2019-04-07T05:05:00.632Z,46.57
2019-04-07T05:05:36.792Z,47.70
2019-04-07T05:06:13.275Z,48.43
2019-04-07T05:06:48.947Z,48.20
2019-04-07T05:07:24.558Z,48.47
2019-04-07T05:08:03.646Z,44.33
2019-04-07T05:08:37.876Z,44.03
2019-04-07T05:09:15.038Z,45.50
2019-04-07T05:09:53.941Z,47.57
2019-04-07T05:10:28.809Z,45.87
2019-04-07T05:11:04.389Z,45.30
2019-04-07T05:11:40.745Z,45.00
2019-04-07T05:12:16.447Z,45.70
2019-04-07T05:12:51.973Z,44.43
2019-04-07T05:13:27.549Z,48.07
2019-04-07T05:14:03.753Z,45.57
2019-04-07T05:14:40.040Z,44.00
2019-04-07T05:15:16.253Z,43.60
2019-04-07T05:15:51.785Z,42.30
2019-04-07T05:16:27.613Z,42.30
2019-04-07T05:17:04.026Z,44.13
2019-04-07T05:17:40.312Z,41.73
2019-04-07T05:18:16.569Z,39.50
2019-04-07T05:18:52.889Z,44.63
2019-04-07T05:19:28.514Z,43.03
2019-04-07T05:20:04.508Z,39.83
2019-04-07T05:20:41.047Z,43.57
2019-04-07T05:21:16.567Z,41.57
2019-04-07T05:21:52.127Z,40.63
2019-04-07T05:22:27.976Z,41.10
2019-04-07T05:23:04.136Z,39.33
2019-04-07T05:23:39.715Z,38.67
2019-04-07T05:24:15.819Z,40.57
2019-04-07T05:24:52.090Z,38.47
2019-04-07T05:25:28.235Z,40.93
2019-04-07T05:26:04.563Z,39.67
2019-04-07T05:26:40.545Z,38.33
2019-04-07T05:27:17.405Z,40.30
2019-04-07T05:27:53.630Z,36.90
2019-04-07T05:28:33.255Z,38.07
2019-04-07T05:29:08.107Z,40.77
2019-04-07T05:29:43.729Z,40.33
2019-04-07T05:30:19.892Z,40.60
2019-04-07T05:30:56.869Z,37.07
2019-04-07T05:31:33.687Z,39.20
2019-04-07T05:32:09.612Z,41.47
2019-04-07T05:32:46.922Z,40.23
2019-04-07T05:33:22.460Z,42.23
2019-04-07T05:33:58.594Z,42.20
2019-04-07T05:34:34.535Z,40.93
2019-04-07T05:35:11.135Z,43.23
2019-04-07T05:35:46.658Z,39.43
2019-04-07T05:36:22.369Z,41.77
2019-04-07T05:36:58.694Z,38.70
2019-04-07T05:37:34.306Z,43.33
2019-04-07T05:38:10.145Z,36.50
2019-04-07T05:38:45.676Z,43.10
2019-04-07T05:39:21.749Z,40.93
2019-04-07T05:39:57.929Z,41.97
2019-04-07T05:40:33.485Z,41.10
2019-04-07T05:41:09.126Z,44.90
2019-04-07T05:41:45.002Z,40.00
2019-04-07T05:42:21.112Z,41.37
2019-04-07T05:42:56.636Z,42.80
2019-04-07T05:43:32.750Z,42.27
2019-04-07T05:44:08.865Z,46.43
2019-04-07T05:44:44.797Z,42.73
2019-04-07T05:45:20.470Z,42.17
2019-04-07T05:45:56.426Z,44.43
2019-04-07T05:46:32.335Z,44.40
2019-04-07T05:47:10.899Z,43.57
2019-04-07T05:47:48.640Z,43.00
2019-04-07T05:48:23.797Z,43.50
2019-04-07T05:49:00.404Z,43.37
2019-04-07T05:49:36.511Z,44.77
2019-04-07T05:50:12.230Z,43.93
2019-04-07T05:50:48.725Z,46.03
2019-04-07T05:51:29.866Z,44.00
2019-04-07T05:52:05.218Z,43.83
2019-04-07T05:52:40.828Z,45.13
2019-04-07T05:53:17.003Z,46.53
2019-04-07T05:53:53.898Z,45.37
2019-04-07T05:54:29.587Z,43.07
2019-04-07T05:55:05.567Z,46.10
2019-04-07T05:55:41.094Z,45.47
2019-04-07T05:56:16.617Z,46.13
2019-04-07T05:56:52.594Z,47.97
2019-04-07T05:57:30.775Z,44.03
2019-04-07T05:58:07.271Z,45.10
2019-04-07T05:58:43.795Z,46.10
2019-04-07T05:59:19.904Z,42.73
2019-04-07T05:59:55.948Z,45.47
2019-04-07T06:00:31.570Z,45.07
2019-04-07T06:01:07.514Z,50.07
2019-04-07T06:01:43.463Z,50.60
2019-04-07T06:02:18.999Z,48.93
2019-04-07T06:02:54.521Z,48.40
2019-04-07T06:03:30.652Z,45.73
2019-04-07T06:04:06.703Z,48.63
2019-04-07T06:04:42.718Z,54.07
2019-04-07T06:05:18.632Z,58.63
2019-04-07T06:05:55.069Z,58.03
2019-04-07T06:06:30.898Z,58.77
2019-04-07T06:07:07.985Z,59.70
2019-04-07T06:07:43.752Z,55.53
2019-04-07T06:08:27.942Z,56.83
2019-04-07T06:08:57.488Z,57.37
2019-04-07T06:09:33.935Z,58.47
2019-04-07T06:10:09.998Z,57.37
2019-04-07T06:10:45.906Z,63.43
2019-04-07T06:11:21.644Z,61.93
2019-04-07T06:11:57.708Z,59.83
2019-04-07T06:12:33.885Z,58.73
2019-04-07T06:13:13.157Z,61.13
2019-04-07T06:13:47.498Z,61.00
2019-04-07T06:14:24.312Z,60.60
2019-04-07T06:15:00.622Z,59.67
2019-04-07T06:15:37.176Z,63.30
2019-04-07T06:16:12.964Z,59.30
2019-04-07T06:16:51.887Z,58.00
2019-04-07T06:17:26.839Z,62.90
2019-04-07T06:18:04.070Z,55.47
2019-04-07T06:18:39.873Z,61.67
2019-04-07T06:19:16.026Z,62.20
2019-04-07T06:19:52.523Z,63.57
2019-04-07T06:20:29.003Z,61.50
2019-04-07T06:21:04.873Z,62.70
2019-04-07T06:21:41.547Z,66.07
2019-04-07T06:22:19.825Z,63.40
2019-04-07T06:22:54.658Z,65.97
2019-04-07T06:23:30.834Z,65.07
2019-04-07T06:24:06.822Z,62.30
2019-04-07T06:24:42.343Z,61.07
2019-04-07T06:25:18.712Z,66.13
2019-04-07T06:25:57.197Z,62.43
2019-04-07T06:26:31.584Z,65.70
2019-04-07T06:27:07.388Z,61.77
2019-04-07T06:27:45.387Z,58.80
2019-04-07T06:28:20.717Z,63.27
2019-04-07T06:28:58.765Z,66.43
2019-04-07T06:29:34.407Z,64.93
2019-04-07T06:30:11.702Z,69.13
2019-04-07T06:30:47.486Z,66.60
2019-04-07T06:31:25.860Z,61.17
2019-04-07T06:32:04.557Z,67.23
2019-04-07T06:32:38.485Z,61.83
2019-04-07T06:33:15.619Z,59.85
2019-04-07T06:33:54.297Z,61.43
2019-04-07T06:34:29.001Z,64.17
2019-04-07T06:35:05.640Z,61.20
2019-04-07T06:35:41.852Z,58.90
2019-04-07T06:36:20.198Z,59.97
2019-04-07T06:36:56.547Z,66.40
2019-04-07T06:37:33.043Z,61.97
2019-04-07T06:38:08.974Z,57.60
2019-04-07T06:38:49.832Z,60.30
2019-04-07T06:39:21.972Z,64.33
2019-04-07T06:39:57.742Z,58.17
2019-04-07T06:40:33.821Z,60.67
2019-04-07T06:41:09.518Z,58.20
2019-04-07T06:41:45.413Z,63.02
2019-04-07T06:42:22.000Z,59.67
2019-04-07T06:42:59.030Z,58.57
2019-04-07T06:43:37.315Z,60.47
2019-04-07T06:44:16.280Z,57.27
2019-04-07T06:44:51.698Z,63.02
2019-04-07T06:45:31.828Z,61.30
2019-04-07T06:46:16.198Z,64.80
2019-04-07T06:47:04.629Z,60.00
2019-04-07T06:47:44.360Z,61.18
2019-04-07T06:48:20.062Z,60.80
2019-04-07T06:49:14.261Z,60.52
2019-04-07T06:50:02.184Z,65.62
2019-04-07T06:50:59.124Z,64.03
2019-04-07T06:51:55.629Z,57.90
2019-04-07T06:52:47.656Z,63.57
2019-04-07T06:53:29.051Z,62.70
2019-04-07T06:54:18.524Z,66.23
2019-04-07T06:55:09.859Z,60.93
2019-04-07T06:56:11.079Z,62.30
2019-04-07T06:57:00.026Z,61.40
2019-04-07T06:57:54.628Z,61.63
2019-04-07T06:58:49.521Z,62.55
2019-04-07T06:59:52.316Z,64.20
2019-04-07T07:01:04.626Z,67.67
2019-04-07T07:02:14.434Z,63.73
2019-04-07T07:03:04.268Z,61.33
2019-04-07T07:03:57.434Z,59.63
2019-04-07T07:04:45.535Z,63.02
2019-04-07T07:05:45.334Z,62.57
2019-04-07T07:06:42.241Z,58.80
2019-04-07T07:07:47.772Z,60.65
2019-04-07T07:08:45.824Z,56.73
2019-04-07T07:09:43.182Z,55.53
2019-04-07T07:10:44.105Z,59.80
2019-04-07T07:11:40.717Z,58.92
2019-04-07T07:12:38.038Z,60.17
2019-04-07T07:13:32.214Z,57.62
2019-04-07T07:14:31.192Z,61.13
2019-04-07T07:15:14.490Z,55.50
2019-04-07T07:15:58.848Z,68.52
2019-04-07T07:16:57.480Z,61.73
2019-04-07T07:17:37.734Z,62.65
2019-04-07T07:18:32.675Z,59.53
2019-04-07T07:19:16.428Z,68.40
2019-04-07T07:20:17.646Z,62.43
2019-04-07T07:21:11.081Z,63.68
2019-04-07T07:22:10.063Z,62.95
2019-04-07T07:22:47.895Z,56.50
2019-04-07T07:23:28.668Z,59.75
2019-04-07T07:24:04.965Z,60.63
2019-04-07T07:24:40.643Z,61.33
2019-04-07T07:25:16.913Z,60.52
2019-04-07T07:25:53.036Z,65.52
2019-04-07T07:26:32.623Z,57.00
2019-04-07T07:27:09.219Z,63.48
2019-04-07T07:27:43.412Z,58.15
2019-04-07T07:28:19.472Z,60.20
2019-04-07T07:28:55.901Z,56.63
2019-04-07T07:29:32.078Z,57.80
2019-04-07T07:30:07.905Z,54.58
2019-04-07T07:30:43.734Z,50.65
2019-04-07T07:31:22.929Z,53.95
2019-04-07T07:32:01.933Z,57.20
2019-04-07T07:32:37.000Z,53.85
2019-04-07T07:33:11.592Z,51.92
2019-04-07T07:33:47.426Z,56.28
2019-04-07T07:34:23.313Z,53.15
2019-04-07T07:34:58.858Z,51.80
2019-04-07T07:35:34.504Z,49.33
2019-04-07T07:36:10.010Z,51.25
2019-04-07T07:36:46.702Z,50.40
2019-04-07T07:37:25.368Z,49.38
2019-04-07T07:38:00.022Z,52.95
2019-04-07T07:38:35.610Z,51.95
2019-04-07T07:39:13.376Z,54.53
2019-04-07T07:39:49.252Z,51.63
2019-04-07T07:40:25.408Z,49.73
2019-04-07T07:41:02.650Z,54.35
2019-04-07T07:41:38.989Z,47.48
2019-04-07T07:42:14.747Z,45.73
2019-04-07T07:42:51.129Z,49.23
2019-04-07T07:43:29.112Z,48.90
2019-04-07T07:44:07.498Z,49.00
2019-04-07T07:44:41.828Z,47.85
2019-04-07T07:45:18.621Z,48.30
2019-04-07T07:45:54.288Z,46.37
2019-04-07T07:46:30.076Z,47.50
2019-04-07T07:47:05.756Z,46.37
2019-04-07T07:47:41.688Z,45.75
2019-04-07T07:48:17.518Z,45.25
2019-04-07T07:48:57.089Z,44.40
2019-04-07T07:49:34.899Z,46.08
2019-04-07T07:50:10.276Z,47.73
2019-04-07T07:50:47.058Z,44.13
2019-04-07T07:51:23.554Z,42.90
2019-04-07T07:51:59.307Z,45.43
2019-04-07T07:52:35.140Z,44.85
2019-04-07T07:53:11.433Z,44.15
2019-04-07T07:53:47.240Z,43.10
2019-04-07T07:54:23.057Z,43.30
2019-04-07T07:55:00.795Z,42.40
2019-04-07T07:55:37.567Z,43.20
2019-04-07T07:56:13.640Z,44.05
2019-04-07T07:56:51.373Z,42.80
2019-04-07T07:57:27.363Z,40.55
2019-04-07T07:58:02.957Z,41.53
2019-04-07T07:58:39.531Z,39.98
2019-04-07T07:59:16.596Z,41.25
2019-04-07T07:59:53.460Z,41.70
2019-04-07T08:00:29.433Z,40.05
2019-04-07T08:01:05.432Z,40.65
2019-04-07T08:01:44.251Z,38.98
2019-04-07T08:02:19.961Z,41.73
2019-04-07T08:02:55.912Z,39.25
2019-04-07T08:03:31.575Z,38.20
2019-04-07T08:04:07.125Z,40.12
2019-04-07T08:04:43.520Z,37.17
2019-04-07T08:05:19.254Z,37.45
2019-04-07T08:05:55.046Z,38.17
2019-04-07T08:06:32.844Z,39.53
2019-04-07T08:07:09.044Z,37.45
2019-04-07T08:07:48.215Z,35.17
2019-04-07T08:08:23.424Z,34.70
2019-04-07T08:09:09.962Z,37.50
2019-04-07T08:09:37.264Z,35.05
2019-04-07T08:10:12.817Z,37.35
2019-04-07T08:10:48.515Z,33.53
2019-04-07T08:11:26.402Z,34.70
2019-04-07T08:12:03.483Z,34.48
2019-04-07T08:12:41.135Z,33.53
2019-04-07T08:13:17.884Z,34.05
2019-04-07T08:13:53.763Z,32.63
2019-04-07T08:14:30.367Z,32.03
2019-04-07T08:15:06.159Z,33.10
2019-04-07T08:15:42.554Z,33.02
2019-04-07T08:16:19.130Z,31.20
2019-04-07T08:16:55.394Z,33.00
2019-04-07T08:17:33.135Z,32.03
2019-04-07T08:18:08.724Z,33.55
2019-04-07T08:18:46.421Z,32.58
2019-04-07T08:19:26.056Z,32.67
2019-04-07T08:20:00.046Z,31.15
2019-04-07T08:20:35.621Z,31.25
2019-04-07T08:21:17.140Z,31.25
2019-04-07T08:21:51.923Z,30.85
2019-04-07T08:22:33.600Z,31.93
2019-04-07T08:23:05.355Z,30.10
2019-04-07T08:23:43.658Z,29.60
2019-04-07T08:24:19.191Z,31.48
2019-04-07T08:24:55.562Z,28.75
2019-04-07T08:25:31.765Z,28.95
2019-04-07T08:26:07.316Z,31.07
2019-04-07T08:26:43.747Z,28.15
2019-04-07T08:27:19.465Z,29.80
2019-04-07T08:27:55.360Z,29.85
2019-04-07T08:28:35.127Z,27.90
2019-04-07T08:29:12.540Z,32.67
2019-04-07T08:29:52.648Z,29.82
2019-04-07T08:30:29.236Z,27.60
2019-04-07T08:31:05.548Z,29.92
2019-04-07T08:31:41.198Z,26.17
2019-04-07T08:32:17.639Z,29.18
2019-04-07T08:32:57.648Z,28.92
2019-04-07T08:33:32.220Z,27.15
2019-04-07T08:34:07.881Z,27.07
2019-04-07T08:34:43.845Z,28.47
2019-04-07T08:35:19.980Z,27.42
2019-04-07T08:35:56.183Z,27.45
2019-04-07T08:36:32.608Z,25.20
2019-04-07T08:37:13.902Z,29.82
2019-04-07T08:37:48.809Z,28.57
2019-04-07T08:38:27.111Z,29.27
2019-04-07T08:39:02.356Z,27.05
2019-04-07T08:39:38.717Z,37.33
2019-04-07T08:40:15.101Z,25.70
2019-04-07T08:40:54.883Z,28.90
2019-04-07T08:41:29.562Z,27.70
2019-04-07T08:42:09.741Z,26.12
2019-04-07T08:42:43.175Z,28.20
2019-04-07T08:43:21.354Z,25.97
2019-04-07T08:43:57.785Z,25.43
2019-04-07T08:44:34.375Z,24.67
2019-04-07T08:45:10.413Z,24.70
2019-04-07T08:45:47.104Z,23.98
2019-04-07T08:46:22.939Z,26.55
2019-04-07T08:46:59.021Z,23.35
2019-04-07T08:47:35.546Z,24.32
2019-04-07T08:48:11.554Z,23.27
2019-04-07T08:48:49.725Z,23.75